Time;durP1;ratioP1;P1;durP2;ratioP2;P2;SDS_P1;SDS_P2;PMS_P1;PMS_P2;Temp;Humidity;BMP_temperature;BMP_pressure;BME280_temperature;BME280_humidity;BME280_pressure;Samples;Min_cycle;Max_cycle;Signal;HPM_P1;HPM_P2
2021/07/30 00:07:15;;;;;;;2.30;1.70;;;22.80;99.90;;;;;;20859716;28;20225;-66
2021/07/30 00:17:20;;;;;;;1.20;0.77;;;22.70;99.90;;;;;;20859307;28;20973;-69
2021/07/30 00:27:26;;;;;;;2.00;1.03;;;22.70;99.90;;;;;;20856943;28;20200;-68
2021/07/30 00:37:31;;;;;;;1.80;1.00;;;22.90;99.90;;;;;;20857996;28;20232;-69
2021/07/30 00:47:35;;;;;;;1.33;0.90;;;23.20;99.90;;;;;;20856453;28;20198;-69
2021/07/30 00:57:41;;;;;;;1.17;0.97;;;23.40;99.90;;;;;;20859043;28;20228;-67
2021/07/30 01:07:44;;;;;;;1.93;1.27;;;23.20;99.90;;;;;;20808361;23;20584;-65
2021/07/30 01:17:50;;;;;;;0.83;0.80;;;23.40;99.90;;;;;;20786993;28;20233;-67
2021/07/30 01:27:56;;;;;;;2.40;1.33;;;23.00;99.90;;;;;;20786903;28;20681;-66
2021/07/30 01:38:00;;;;;;;0.63;0.63;;;22.90;99.90;;;;;;20784227;28;20234;-66
2021/07/30 01:48:05;;;;;;;1.93;0.90;;;22.80;99.90;;;;;;20784235;28;20504;-66
2021/07/30 01:58:09;;;;;;;1.23;1.13;;;22.90;99.90;;;;;;20782871;28;20222;-66
2021/07/30 02:08:14;;;;;;;1.03;0.70;;;22.90;99.90;;;;;;20781967;28;20229;-64
2021/07/30 02:18:17;;;;;;;4.55;2.00;;;23.10;99.90;;;;;;20780877;28;20692;-66
2021/07/30 02:28:22;;;;;;;1.47;1.27;;;23.30;99.90;;;;;;20782191;28;20198;-66
2021/07/30 02:38:26;;;;;;;1.30;1.03;;;23.00;99.90;;;;;;20778827;28;20592;-66
2021/07/30 02:48:31;;;;;;;0.70;0.60;;;23.00;99.90;;;;;;20781276;28;20662;-66
2021/07/30 02:58:36;;;;;;;1.00;0.90;;;22.90;99.90;;;;;;20777774;28;20726;-66
2021/07/30 03:08:41;;;;;;;0.77;0.77;;;22.80;99.90;;;;;;20780430;28;20233;-66
2021/07/30 03:18:44;;;;;;;1.57;1.47;;;22.90;99.90;;;;;;20776358;28;20224;-66
2021/07/30 03:28:50;;;;;;;1.27;1.17;;;22.80;99.90;;;;;;20775253;28;20857;-66
2021/07/30 03:38:53;;;;;;;1.40;1.20;;;23.10;99.90;;;;;;20773737;28;20684;-66
2021/07/30 03:48:59;;;;;;;1.00;0.90;;;23.10;99.90;;;;;;20780449;28;20202;-66
2021/07/30 03:59:09;;;;;;;0.87;0.87;;;23.30;99.90;;;;;;20776515;28;20218;-66
2021/07/30 04:09:15;;;;;;;6.53;1.30;;;23.30;99.90;;;;;;20775959;28;20293;-66
2021/07/30 04:19:19;;;;;;;2.57;1.63;;;23.30;99.90;;;;;;20778307;28;20305;-66
2021/07/30 04:29:26;;;;;;;4.03;1.00;;;23.20;99.90;;;;;;20774738;28;20563;-66
2021/07/30 04:39:30;;;;;;;0.87;0.80;;;23.00;99.90;;;;;;20776538;28;20669;-66
2021/07/30 04:49:38;;;;;;;1.67;1.43;;;22.90;99.90;;;;;;20785118;28;20197;-66
2021/07/30 04:59:42;;;;;;;0.50;0.50;;;23.00;99.90;;;;;;20788243;28;20257;-66
2021/07/30 05:09:47;;;;;;;2.47;1.13;;;23.20;99.90;;;;;;20787121;28;20209;-66
2021/07/30 05:19:50;;;;;;;1.10;0.93;;;23.20;99.90;;;;;;20785194;28;20221;-66
2021/07/30 05:29:58;;;;;;;1.27;1.15;;;23.50;99.90;;;;;;20787366;28;20634;-66
2021/07/30 05:40:02;;;;;;;2.10;1.02;;;23.80;99.90;;;;;;20764070;28;20236;-66
2021/07/30 05:50:08;;;;;;;0.70;0.52;;;24.20;99.90;;;;;;20784755;28;20544;-66
2021/07/30 06:00:13;;;;;;;1.58;1.15;;;24.50;99.90;;;;;;20782079;28;20241;-68
2021/07/30 06:10:18;;;;;;;1.90;1.35;;;24.90;99.90;;;;;;20782478;28;20205;-67
2021/07/30 06:20:24;;;;;;;2.90;2.05;;;25.30;99.90;;;;;;20780483;28;20252;-67
2021/07/30 06:30:29;;;;;;;1.55;1.13;;;25.50;99.90;;;;;;20781776;28;20209;-66
2021/07/30 06:40:33;;;;;;;2.45;1.45;;;25.70;99.90;;;;;;20780361;28;20233;-67
2021/07/30 06:50:38;;;;;;;0.75;0.68;;;25.90;99.90;;;;;;20779094;28;20198;-67
2021/07/30 07:00:41;;;;;;;1.95;0.93;;;26.00;99.90;;;;;;20775680;28;20493;-68
2021/07/30 07:10:46;;;;;;;2.13;1.65;;;26.30;99.90;;;;;;20771427;28;20190;-66
2021/07/30 07:20:56;;;;;;;1.88;1.55;;;26.50;99.90;;;;;;20778196;28;20240;-65
2021/07/30 07:31:01;;;;;;;2.42;1.50;;;26.80;99.90;;;;;;20773931;28;20556;-67
2021/07/30 07:41:05;;;;;;;1.67;1.58;;;27.00;99.90;;;;;;20757299;28;20218;-66
2021/07/30 07:51:10;;;;;;;1.52;1.38;;;27.10;99.90;;;;;;20772247;28;20617;-67
2021/07/30 08:01:15;;;;;;;1.40;0.93;;;27.10;99.90;;;;;;20772034;28;20770;-65
2021/07/30 08:11:20;;;;;;;2.78;2.53;;;27.20;99.90;;;;;;20774258;28;20672;-66
2021/07/30 08:21:26;;;;;;;5.13;0.93;;;27.20;99.90;;;;;;20787462;28;20226;-66
2021/07/30 08:31:32;;;;;;;2.72;1.52;;;27.00;99.90;;;;;;20791506;28;20570;-67
2021/07/30 08:41:36;;;;;;;1.73;1.45;;;27.10;99.90;;;;;;20789227;28;20669;-67
2021/07/30 08:51:44;;;;;;;1.15;1.08;;;27.30;99.90;;;;;;20749929;28;20194;-67
2021/07/30 09:01:53;;;;;;;2.67;1.85;;;27.10;99.90;;;;;;20769663;28;20276;-67
2021/07/30 09:12:00;;;;;;;1.92;1.10;;;27.30;99.90;;;;;;20715777;28;20202;-66
2021/07/30 09:22:08;;;;;;;1.65;1.15;;;27.40;99.90;;;;;;20701266;28;20640;-65
2021/07/30 09:32:16;;;;;;;1.58;1.48;;;27.70;99.90;;;;;;20684405;28;20601;-65
2021/07/30 09:42:21;;;;;;;0.80;0.70;;;27.70;99.90;;;;;;20735890;28;20237;-64
2021/07/30 09:52:27;;;;;;;2.88;1.50;;;27.70;99.90;;;;;;20779404;28;20657;-65
2021/07/30 10:02:33;;;;;;;1.17;0.93;;;28.10;99.90;;;;;;20779858;28;20258;-64
2021/07/30 10:12:43;;;;;;;0.98;0.77;;;28.20;99.90;;;;;;20780348;28;20205;-64
2021/07/30 10:22:51;;;;;;;1.45;1.15;;;28.40;99.90;;;;;;20760727;28;20264;-65
2021/07/30 10:32:58;;;;;;;1.75;1.38;;;28.70;99.90;;;;;;20778592;28;20217;-63
2021/07/30 10:43:07;;;;;;;1.10;0.93;;;29.00;99.90;;;;;;20756064;28;20507;-64
2021/07/30 10:53:44;;;;;;;1.23;1.13;;;29.30;99.90;;;;;;20773135;28;20605;-64
2021/07/30 11:04:03;;;;;;;1.70;1.60;;;29.60;99.90;;;;;;20775038;28;20776;-63
2021/07/30 11:14:11;;;;;;;1.73;1.13;;;30.10;99.90;;;;;;20775310;28;20680;-63
2021/07/30 11:24:15;;;;;;;2.50;0.88;;;30.30;99.90;;;;;;20755751;28;20232;-64
2021/07/30 11:34:21;;;;;;;1.15;1.05;;;30.80;99.90;;;;;;20771835;28;20194;-65
2021/07/30 11:44:25;;;;;;;1.42;1.33;;;31.90;99.90;;;;;;20755635;28;20226;-66
2021/07/30 11:54:30;;;;;;;1.30;1.00;;;32.50;99.90;;;;;;20773522;28;20197;-67
2021/07/30 12:04:34;;;;;;;1.88;1.65;;;32.60;99.90;;;;;;20771788;28;20783;-66
2021/07/30 12:14:40;;;;;;;3.42;1.42;;;32.70;99.90;;;;;;20752848;28;20200;-66
2021/07/30 12:24:53;;;;;;;2.58;1.92;;;33.60;99.90;;;;;;20770934;28;20548;-65
2021/07/30 12:35:02;;;;;;;1.52;1.33;;;33.90;99.90;;;;;;20770342;28;20198;-67
2021/07/30 12:45:11;;;;;;;4.93;2.13;;;34.40;99.90;;;;;;20751272;28;20217;-66
2021/07/30 12:55:16;;;;;;;1.90;1.10;;;34.00;99.90;;;;;;20771793;28;20474;-67
2021/07/30 13:05:22;;;;;;;1.98;1.10;;;34.40;99.90;;;;;;20776760;28;20664;-68
2021/07/30 13:15:26;;;;;;;3.63;1.88;;;34.60;99.90;;;;;;20784773;28;20202;-66
2021/07/30 13:25:35;;;;;;;2.50;2.10;;;35.20;99.90;;;;;;20768550;28;20226;-65
2021/07/30 13:35:40;;;;;;;1.00;0.90;;;35.30;99.90;;;;;;20783466;28;20549;-66
2021/07/30 13:45:45;;;;;;;3.60;1.65;;;35.30;99.90;;;;;;20783380;28;20225;-67
2021/07/30 13:55:50;;;;;;;2.78;1.58;;;35.40;99.90;;;;;;20781147;28;20205;-66
2021/07/30 14:05:54;;;;;;;1.70;1.60;;;35.50;99.90;;;;;;20765159;28;20246;-67
2021/07/30 14:15:59;;;;;;;1.90;1.63;;;35.90;99.90;;;;;;20763740;28;20206;-65
2021/07/30 14:26:03;;;;;;;1.38;0.98;;;36.20;99.90;;;;;;20780680;28;20443;-66
2021/07/30 14:36:10;;;;;;;2.63;2.13;;;36.30;99.90;;;;;;20776564;28;20206;-67
2021/07/30 14:46:14;;;;;;;5.70;1.48;;;37.00;99.90;;;;;;20778221;28;20583;-65
2021/07/30 14:56:19;;;;;;;6.22;2.45;;;36.40;99.90;;;;;;20776074;28;20218;-66
2021/07/30 15:06:23;;;;;;;4.55;2.03;;;36.50;99.90;;;;;;20776088;28;20283;-67
2021/07/30 15:16:28;;;;;;;5.95;3.28;;;36.50;99.90;;;;;;20774482;28;20194;-66
2021/07/30 15:26:32;;;;;;;3.15;1.85;;;36.70;99.90;;;;;;20776148;28;20528;-65
2021/07/30 15:36:38;;;;;;;4.75;2.63;;;36.40;99.90;;;;;;20774576;28;20198;-66
2021/07/30 15:46:43;;;;;;;6.68;1.88;;;36.30;99.90;;;;;;20771446;28;20229;-66
2021/07/30 15:56:48;;;;;;;1.65;1.48;;;36.80;99.90;;;;;;20775697;28;20376;-66
2021/07/30 16:06:52;;;;;;;1.58;1.35;;;35.50;99.90;;;;;;20755349;28;20592;-66
2021/07/30 16:16:57;;;;;;;5.53;2.05;;;34.30;99.90;;;;;;20754299;28;20190;-65
2021/07/30 16:27:00;;;;;;;20.27;2.40;;;31.90;99.90;;;;;;20752736;28;20222;-66
2021/07/30 16:37:05;;;;;;;2.47;1.73;;;31.20;99.90;;;;;;20776235;28;20468;-66
2021/07/30 16:47:09;;;;;;;3.38;1.90;;;30.60;99.90;;;;;;20784080;28;20229;-66
2021/07/30 16:57:14;;;;;;;1.33;1.23;;;30.00;99.90;;;;;;20787507;28;20194;-68
2021/07/30 17:07:18;;;;;;;3.13;1.23;;;29.90;99.90;;;;;;20787315;28;20226;-69
2021/07/30 17:17:23;;;;;;;10.02;1.63;;;29.70;99.90;;;;;;20785573;28;20198;-68
2021/07/30 17:27:27;;;;;;;5.78;1.52;;;29.40;99.90;;;;;;20783059;28;20222;-67
2021/07/30 17:37:32;;;;;;;4.75;2.72;;;29.00;99.90;;;;;;20783850;28;20569;-67
2021/07/30 17:47:36;;;;;;;6.95;1.25;;;28.80;99.90;;;;;;20781116;28;20221;-67
2021/07/30 17:57:42;;;;;;;1.42;1.33;;;28.60;99.90;;;;;;20781939;28;20312;-68
2021/07/30 18:07:45;;;;;;;2.20;1.80;;;28.30;99.90;;;;;;20780536;28;20406;-68
2021/07/30 18:17:50;;;;;;;2.47;1.40;;;28.10;99.90;;;;;;20780130;28;20230;-68
2021/07/30 18:27:54;;;;;;;2.10;1.23;;;28.20;99.90;;;;;;20779998;28;20241;-69
2021/07/30 18:37:59;;;;;;;2.35;2.00;;;28.30;99.90;;;;;;20777464;28;20192;-67
2021/07/30 18:48:03;;;;;;;2.58;1.52;;;28.00;99.90;;;;;;20777365;28;20902;-68
2021/07/30 18:58:08;;;;;;;1.38;1.27;;;27.70;99.90;;;;;;20757385;28;20198;-68
2021/07/30 19:08:12;;;;;;;4.28;1.65;;;27.40;99.90;;;;;;20775602;28;20233;-64
2021/07/30 19:18:17;;;;;;;2.40;1.30;;;27.30;99.90;;;;;;20755200;28;20186;-65
2021/07/30 19:28:20;;;;;;;2.95;2.10;;;27.00;99.90;;;;;;20776264;28;20244;-66
2021/07/30 19:38:25;;;;;;;3.50;2.42;;;27.10;99.90;;;;;;20772709;28;20194;-65
2021/07/30 19:48:30;;;;;;;3.28;1.95;;;26.80;99.90;;;;;;20773718;28;20230;-65
2021/07/30 19:58:35;;;;;;;1.55;1.30;;;26.80;99.90;;;;;;20771296;28;20206;-66
2021/07/30 20:08:42;;;;;;;2.65;2.45;;;26.50;99.90;;;;;;20773301;28;20755;-65
2021/07/30 20:18:48;;;;;;;2.30;1.77;;;26.40;99.90;;;;;;20799564;28;20193;-66
2021/07/30 20:28:52;;;;;;;1.50;1.20;;;26.40;99.90;;;;;;20781742;28;20221;-65
2021/07/30 20:38:58;;;;;;;1.55;1.20;;;26.40;99.90;;;;;;20800633;28;20193;-66
2021/07/30 20:49:01;;;;;;;1.80;1.05;;;26.30;99.90;;;;;;20797496;28;20279;-68
2021/07/30 20:59:07;;;;;;;1.65;1.30;;;26.30;99.90;;;;;;20798726;28;20193;-67
2021/07/30 21:09:11;;;;;;;0.90;0.90;;;26.20;99.90;;;;;;20794891;28;20218;-67
2021/07/30 21:19:16;;;;;;;1.98;0.90;;;26.20;99.90;;;;;;20797721;28;20618;-66
2021/07/30 21:29:20;;;;;;;1.40;0.85;;;26.10;99.90;;;;;;20780196;28;20221;-67
2021/07/30 21:39:25;;;;;;;6.25;1.90;;;26.10;99.90;;;;;;20764206;28;20206;-68
2021/07/30 21:49:28;;;;;;;1.00;0.90;;;26.10;99.90;;;;;;20780249;28;20225;-67
2021/07/30 21:59:33;;;;;;;0.52;0.52;;;26.20;99.90;;;;;;20782693;28;20732;-67
2021/07/30 22:09:37;;;;;;;1.67;1.58;;;26.10;99.90;;;;;;20782103;28;20321;-68
2021/07/30 22:19:44;;;;;;;1.75;1.52;;;25.90;99.90;;;;;;20781937;28;20198;-68
2021/07/30 22:29:47;;;;;;;0.95;0.95;;;25.90;99.90;;;;;;20781173;28;20222;-68
2021/07/30 22:39:54;;;;;;;2.58;1.58;;;26.00;99.90;;;;;;20778097;28;20626;-66
2021/07/30 22:49:58;;;;;;;1.00;0.90;;;25.80;99.90;;;;;;20779848;28;20645;-67
2021/07/30 23:00:05;;;;;;;0.65;0.47;;;25.70;99.90;;;;;;20777512;28;20226;-66
2021/07/30 23:10:10;;;;;;;1.30;1.13;;;25.60;99.90;;;;;;20778455;28;20895;-66
2021/07/30 23:20:15;;;;;;;0.85;0.70;;;25.40;99.90;;;;;;20777751;28;20202;-66
2021/07/30 23:30:19;;;;;;;3.13;1.67;;;25.50;99.90;;;;;;20778293;28;20579;-67
2021/07/30 23:40:24;;;;;;;0.93;0.82;;;25.20;99.90;;;;;;20774630;28;20209;-67
2021/07/30 23:50:27;;;;;;;1.15;0.82;;;25.20;99.90;;;;;;20777497;28;20238;-66
